createdAt,value
2022-11-14T00:01:13.222Z,99166.19
2022-11-14T00:03:40.013Z,99174.16
2022-11-14T00:06:07.752Z,99168.75
2022-11-14T00:08:34.574Z,99166.94
2022-11-14T00:11:01.121Z,99161.84
2022-11-14T00:13:27.608Z,99165.97
2022-11-14T00:15:54.421Z,99171.97
2022-11-14T00:18:21.047Z,99166.59
2022-11-14T00:20:52.311Z,99158.50
2022-11-14T00:23:20.272Z,99160.31
2022-11-14T00:25:47.428Z,99150.75
2022-11-14T00:28:14.538Z,99162.13
2022-11-14T00:30:41.186Z,99151.91
2022-11-14T00:33:07.750Z,99145.13
2022-11-14T00:35:34.197Z,99138.25
2022-11-14T00:38:00.851Z,99139.00
2022-11-14T00:40:27.320Z,99141.72
2022-11-14T00:42:54.374Z,99142.72
2022-11-14T00:45:24.167Z,99134.09
2022-11-14T00:47:50.672Z,99133.28
2022-11-14T00:50:20.340Z,99119.25
2022-11-14T00:52:46.872Z,99114.06
2022-11-14T00:55:13.366Z,99114.91
2022-11-14T00:57:39.873Z,99106.72
2022-11-14T01:00:09.945Z,99105.81
2022-11-14T01:02:36.475Z,99111.91
2022-11-14T01:05:03.028Z,99107.31
2022-11-14T01:07:32.441Z,99100.94
2022-11-14T01:09:58.895Z,99090.19
2022-11-14T01:12:25.444Z,99090.16
2022-11-14T01:14:51.881Z,99094.34
2022-11-14T01:17:18.332Z,99085.47
2022-11-14T01:19:44.812Z,99087.22
2022-11-14T01:22:11.287Z,99077.44
2022-11-14T01:24:37.795Z,99081.03
2022-11-14T01:27:04.321Z,99079.66
2022-11-14T01:29:30.903Z,99075.59
2022-11-14T01:31:57.395Z,99081.88
2022-11-14T01:34:24.040Z,99068.84
2022-11-14T01:36:50.528Z,99066.91
2022-11-14T01:39:17.162Z,99054.50
2022-11-14T01:41:43.921Z,99065.81
2022-11-14T01:44:16.494Z,99063.44
2022-11-14T01:46:48.296Z,99064.09
2022-11-14T01:49:21.835Z,99063.91
2022-11-14T01:52:02.295Z,99049.94
2022-11-14T01:54:33.103Z,99051.72
2022-11-14T01:57:02.064Z,99053.38
2022-11-14T01:59:39.924Z,99046.25
2022-11-14T02:02:13.697Z,99033.16
2022-11-14T02:04:45.040Z,99033.88
2022-11-14T02:07:12.781Z,99035.09
2022-11-14T02:09:42.681Z,99036.22
2022-11-14T02:12:14.564Z,99028.56
2022-11-14T02:14:45.240Z,99027.41
2022-11-14T02:17:30.622Z,99028.03
2022-11-14T02:20:05.280Z,99022.75
2022-11-14T02:22:32.492Z,99019.94
2022-11-14T02:24:58.955Z,99023.16
2022-11-14T02:27:25.464Z,99009.16
2022-11-14T02:29:51.968Z,99012.94
2022-11-14T02:32:18.621Z,99013.72
2022-11-14T02:34:45.120Z,99006.72
2022-11-14T02:37:11.693Z,99003.19
2022-11-14T02:39:38.941Z,99004.16
2022-11-14T02:42:05.811Z,99003.31
2022-11-14T02:44:32.356Z,98998.22
2022-11-14T02:46:58.817Z,98993.47
2022-11-14T02:49:25.305Z,98995.34
2022-11-14T02:51:51.752Z,98994.69
2022-11-14T02:54:18.260Z,98999.78
2022-11-14T02:56:44.713Z,98999.69
2022-11-14T02:59:11.205Z,98996.16
2022-11-14T03:01:37.743Z,98996.19
2022-11-14T03:04:04.428Z,98999.69
2022-11-14T03:06:31.084Z,98995.34
2022-11-14T03:08:57.996Z,99000.56
2022-11-14T03:11:24.473Z,98997.03
2022-11-14T03:13:50.961Z,98990.75
2022-11-14T03:16:17.479Z,98991.56
2022-11-14T03:18:44.019Z,98982.75
2022-11-14T03:21:19.421Z,98986.00
2022-11-14T03:23:46.769Z,98995.03
2022-11-14T03:26:15.046Z,98984.28
2022-11-14T03:28:42.380Z,98982.38
2022-11-14T03:31:11.513Z,98982.50
2022-11-14T03:33:38.172Z,98972.72
2022-11-14T03:36:05.783Z,98977.34
2022-11-14T03:38:32.956Z,98972.91
2022-11-14T03:41:00.162Z,98972.09
2022-11-14T03:43:29.883Z,98973.81
2022-11-14T03:45:58.803Z,98972.63
2022-11-14T03:48:25.250Z,98967.69
2022-11-14T03:50:51.782Z,98971.34
2022-11-14T03:53:18.248Z,98975.03
2022-11-14T03:55:46.756Z,98963.88
2022-11-14T03:58:13.221Z,98964.00
2022-11-14T04:00:39.981Z,98959.38
2022-11-14T04:03:06.537Z,98959.91
2022-11-14T04:05:33.226Z,98957.94
2022-11-14T04:07:59.837Z,98946.78
2022-11-14T04:10:26.315Z,98950.88
2022-11-14T04:12:53.998Z,98956.63
2022-11-14T04:15:21.229Z,98959.31
2022-11-14T04:17:47.802Z,98952.09
2022-11-14T04:20:15.227Z,98951.31
2022-11-14T04:22:41.818Z,98943.69
2022-11-14T04:25:09.211Z,98947.66
2022-11-14T04:27:35.844Z,98944.97
2022-11-14T04:30:02.768Z,98957.09
2022-11-14T04:32:29.319Z,98945.00
2022-11-14T04:34:55.786Z,98937.75
2022-11-14T04:37:22.683Z,98931.47
2022-11-14T04:39:49.137Z,98935.06
2022-11-14T04:42:15.637Z,98927.88
2022-11-14T04:44:42.217Z,98924.66
2022-11-14T04:47:08.688Z,98922.13
2022-11-14T04:49:35.319Z,98904.66
2022-11-14T04:52:01.953Z,98908.94
2022-11-14T04:54:28.629Z,98913.72
2022-11-14T04:56:55.066Z,98915.31
2022-11-14T04:59:21.551Z,98915.50
2022-11-14T05:01:48.162Z,98906.97
2022-11-14T05:04:14.889Z,98910.00
2022-11-14T05:06:41.396Z,98905.56
2022-11-14T05:09:08.043Z,98903.63
2022-11-14T05:11:34.555Z,98904.31
2022-11-14T05:14:01.014Z,98903.78
2022-11-14T05:16:27.525Z,98902.16
2022-11-14T05:18:54.912Z,98896.09
2022-11-14T05:21:21.936Z,98895.84
2022-11-14T05:23:48.466Z,98889.75
2022-11-14T05:26:17.495Z,98880.75
2022-11-14T05:28:44.011Z,98892.78
2022-11-14T05:31:13.679Z,98883.97
2022-11-14T05:33:40.328Z,98885.72
2022-11-14T05:36:12.003Z,98890.41
2022-11-14T05:38:38.586Z,98882.53
2022-11-14T05:41:06.738Z,98879.94
2022-11-14T05:43:33.529Z,98880.22
2022-11-14T05:46:01.394Z,98878.25
2022-11-14T05:48:28.672Z,98878.84
2022-11-14T05:50:59.328Z,98875.28
2022-11-14T05:53:27.643Z,98875.28
2022-11-14T05:55:54.335Z,98879.69
2022-11-14T05:58:21.708Z,98877.22
2022-11-14T06:00:53.668Z,98886.09
2022-11-14T06:03:20.996Z,98877.22
2022-11-14T06:05:47.439Z,98881.59
2022-11-14T06:08:13.944Z,98882.69
2022-11-14T06:10:40.428Z,98871.31
2022-11-14T06:13:06.899Z,98874.31
2022-11-14T06:15:33.329Z,98884.75
2022-11-14T06:17:59.867Z,98883.66
2022-11-14T06:20:26.343Z,98874.00
2022-11-14T06:22:55.037Z,98876.63
2022-11-14T06:25:21.558Z,98881.91
2022-11-14T06:27:48.051Z,98864.75
2022-11-14T06:30:14.618Z,98864.63
2022-11-14T06:32:41.128Z,98871.63
2022-11-14T06:35:08.447Z,98867.22
2022-11-14T06:37:37.853Z,98883.25
2022-11-14T06:40:04.710Z,98877.59
2022-11-14T06:42:31.239Z,98872.22
2022-11-14T06:44:57.677Z,98879.22
2022-11-14T06:47:24.224Z,98884.59
2022-11-14T06:49:50.664Z,98881.16
2022-11-14T06:52:17.101Z,98874.81
2022-11-14T06:54:43.589Z,98877.28
2022-11-14T06:57:10.062Z,98878.97
2022-11-14T06:59:36.629Z,98872.81
2022-11-14T07:02:03.179Z,98874.47
2022-11-14T07:04:29.628Z,98880.44
2022-11-14T07:06:56.139Z,98881.69
2022-11-14T07:09:22.722Z,98887.34
2022-11-14T07:11:49.178Z,98885.50
2022-11-14T07:14:15.654Z,98907.28
2022-11-14T07:16:42.122Z,98891.41
2022-11-14T07:19:11.558Z,98894.16
2022-11-14T07:21:38.633Z,98875.94
2022-11-14T07:24:05.636Z,98883.41
2022-11-14T07:26:32.089Z,98883.13
2022-11-14T07:29:02.375Z,98877.78
2022-11-14T07:31:29.710Z,98883.00
2022-11-14T07:33:56.248Z,98883.19
2022-11-14T07:36:23.700Z,98884.22
2022-11-14T07:38:50.177Z,98868.59
2022-11-14T07:41:17.460Z,98880.22
2022-11-14T07:43:44.232Z,98883.72
2022-11-14T07:46:14.145Z,98877.59
2022-11-14T07:48:40.690Z,98882.41
2022-11-14T07:51:09.892Z,98870.53
2022-11-14T07:53:36.676Z,98869.81
2022-11-14T07:56:06.708Z,98878.13
2022-11-14T07:58:35.976Z,98882.69
2022-11-14T08:01:04.019Z,98883.63
2022-11-14T08:03:34.764Z,98878.19
2022-11-14T08:06:09.538Z,98880.63
2022-11-14T08:08:36.584Z,98883.16
2022-11-14T08:11:03.378Z,98883.97
2022-11-14T08:13:33.216Z,98898.09
2022-11-14T08:16:10.841Z,98879.88
2022-11-14T08:18:39.277Z,98882.63
2022-11-14T08:21:06.456Z,98886.31
2022-11-14T08:23:33.018Z,98879.13
2022-11-14T08:26:00.058Z,98865.28
2022-11-14T08:28:26.958Z,98869.53
2022-11-14T08:30:59.471Z,98867.06
2022-11-14T08:33:26.000Z,98856.75
2022-11-14T08:35:52.505Z,98856.94
2022-11-14T08:38:18.982Z,98849.25
2022-11-14T08:40:45.443Z,98845.97
2022-11-14T08:43:12.031Z,98844.16
2022-11-14T08:45:38.548Z,98846.28
2022-11-14T08:48:05.788Z,98855.66
2022-11-14T08:50:32.466Z,98858.28
2022-11-14T08:52:59.023Z,98859.28
2022-11-14T08:55:25.585Z,98856.88
2022-11-14T08:57:53.746Z,98852.50
2022-11-14T09:00:20.701Z,98856.84
2022-11-14T09:02:47.299Z,98854.09
2022-11-14T09:05:13.869Z,98842.00
2022-11-14T09:07:40.380Z,98850.50
2022-11-14T09:10:07.898Z,98834.75
2022-11-14T09:12:34.467Z,98836.44
2022-11-14T09:15:01.011Z,98831.84
2022-11-14T09:17:27.564Z,98830.06
2022-11-14T09:19:54.298Z,98822.44
2022-11-14T09:22:20.828Z,98812.25
2022-11-14T09:24:47.788Z,98813.22
2022-11-14T09:27:17.864Z,98798.47
2022-11-14T09:29:44.424Z,98793.13
2022-11-14T09:32:10.910Z,98794.13
2022-11-14T09:34:37.510Z,98808.34
2022-11-14T09:37:04.061Z,98803.22
2022-11-14T09:39:30.551Z,98811.28
2022-11-14T09:42:23.026Z,98810.75
2022-11-14T09:45:02.409Z,98802.09
2022-11-14T09:48:00.920Z,98796.75
2022-11-14T09:50:33.581Z,98795.66
2022-11-14T09:53:19.483Z,98799.28
2022-11-14T09:55:45.932Z,98804.38
2022-11-14T09:58:19.788Z,98809.69
2022-11-14T10:01:47.908Z,98802.56
2022-11-14T10:04:48.228Z,98800.06
2022-11-14T10:07:14.703Z,98787.34
2022-11-14T10:09:49.378Z,98782.19
2022-11-14T10:12:35.680Z,98773.78
2022-11-14T10:15:41.001Z,98771.09
2022-11-14T10:18:39.570Z,98785.03
2022-11-14T10:21:44.646Z,98779.19
2022-11-14T10:24:39.357Z,98763.16
2022-11-14T10:27:10.687Z,98778.09
2022-11-14T10:29:38.187Z,98772.28
2022-11-14T10:32:28.463Z,98784.59
2022-11-14T10:35:14.638Z,98788.22
2022-11-14T10:38:03.312Z,98784.75
2022-11-14T10:40:54.461Z,98772.47
2022-11-14T10:43:23.867Z,98784.75
2022-11-14T10:46:07.810Z,98786.91
2022-11-14T10:48:39.929Z,98795.56
2022-11-14T10:51:37.681Z,98800.81
2022-11-14T10:54:10.245Z,98796.81
2022-11-14T10:56:50.878Z,98783.03
2022-11-14T10:59:17.426Z,98772.56
2022-11-14T11:01:50.884Z,98771.41
2022-11-14T11:04:27.991Z,98754.72
2022-11-14T11:07:36.555Z,98775.72
2022-11-14T11:10:22.628Z,98768.84
2022-11-14T11:12:54.009Z,98781.97
2022-11-14T11:15:27.956Z,98766.94
2022-11-14T11:17:57.194Z,98767.00
2022-11-14T11:20:23.619Z,98767.25
2022-11-14T11:23:03.428Z,98775.81
2022-11-14T11:25:33.000Z,98781.06
2022-11-14T11:28:11.382Z,98786.22
2022-11-14T11:30:38.673Z,98794.81
2022-11-14T11:33:20.950Z,98800.84
2022-11-14T11:35:53.270Z,98801.00
2022-11-14T11:38:21.725Z,98800.88
2022-11-14T11:40:52.556Z,98789.47
2022-11-14T11:43:43.120Z,98803.66
2022-11-14T11:46:22.936Z,98788.97
2022-11-14T11:48:56.388Z,98793.25
2022-11-14T11:51:26.801Z,98794.09
2022-11-14T11:54:10.823Z,98775.09
2022-11-14T11:56:38.642Z,98776.16
2022-11-14T11:59:33.608Z,98768.34
2022-11-14T12:02:17.465Z,98772.19
2022-11-14T12:04:46.885Z,98775.91
2022-11-14T12:07:20.332Z,98782.97
2022-11-14T12:10:09.726Z,98773.56
2022-11-14T12:12:45.416Z,98776.19
2022-11-14T12:15:31.366Z,98769.09
2022-11-14T12:18:21.483Z,98763.00
2022-11-14T12:20:54.489Z,98767.59
2022-11-14T12:24:02.521Z,98756.34
2022-11-14T12:26:35.067Z,98759.09
2022-11-14T12:29:13.204Z,98760.88
2022-11-14T12:31:41.210Z,98753.81
2022-11-14T12:34:22.457Z,98758.25
2022-11-14T12:36:49.237Z,98748.47
2022-11-14T12:39:54.917Z,98745.84
2022-11-14T12:42:21.975Z,98747.72
2022-11-14T12:44:48.523Z,98745.06
2022-11-14T12:47:26.017Z,98747.69
2022-11-14T12:49:52.718Z,98743.25
2022-11-14T12:52:40.349Z,98742.50
2022-11-14T12:55:22.437Z,98742.78
2022-11-14T12:57:55.679Z,98738.50
2022-11-14T13:00:22.490Z,98740.44
2022-11-14T13:03:10.499Z,98733.56
2022-11-14T13:05:46.715Z,98730.16
2022-11-14T13:08:28.936Z,98732.84
2022-11-14T13:10:55.277Z,98736.44
2022-11-14T13:13:41.332Z,98729.50
2022-11-14T13:16:42.782Z,98725.19
2022-11-14T13:19:30.625Z,98730.44
2022-11-14T13:22:12.041Z,98729.66
2022-11-14T13:25:03.541Z,98727.03
2022-11-14T13:28:05.189Z,98715.69
2022-11-14T13:30:59.158Z,98708.59
2022-11-14T13:33:59.090Z,98712.13
2022-11-14T13:36:37.792Z,98706.81
2022-11-14T13:39:18.219Z,98692.81
2022-11-14T13:41:59.879Z,98690.16
2022-11-14T13:44:47.992Z,98690.13
2022-11-14T13:47:19.728Z,98688.41
2022-11-14T13:50:01.198Z,98684.03
2022-11-14T13:52:36.630Z,98679.66
2022-11-14T13:55:03.341Z,98682.34
2022-11-14T13:57:32.697Z,98684.09
2022-11-14T14:00:08.495Z,98682.34
2022-11-14T14:02:46.590Z,98684.09
2022-11-14T14:05:32.249Z,98670.94
2022-11-14T14:08:14.002Z,98676.19
2022-11-14T14:11:03.544Z,98658.66
2022-11-14T14:13:55.304Z,98662.09
2022-11-14T14:16:44.549Z,98653.31
2022-11-14T14:19:36.213Z,98646.28
2022-11-14T14:22:11.849Z,98659.38
2022-11-14T14:25:03.277Z,98661.19
2022-11-14T14:27:42.215Z,98656.78
2022-11-14T14:30:17.684Z,98656.75
2022-11-14T14:32:44.381Z,98653.28
2022-11-14T14:35:25.866Z,98656.72
2022-11-14T14:37:53.875Z,98653.19
2022-11-14T14:40:36.052Z,98654.88
2022-11-14T14:43:05.045Z,98653.13
2022-11-14T14:45:45.576Z,98649.59
2022-11-14T14:48:21.277Z,98654.84
2022-11-14T14:50:50.621Z,98650.44
2022-11-14T14:53:23.543Z,98649.56
2022-11-14T14:56:21.007Z,98650.44
2022-11-14T14:58:47.555Z,98646.06
2022-11-14T15:01:23.633Z,98636.41
2022-11-14T15:03:56.668Z,98633.69
2022-11-14T15:06:33.232Z,98640.66
2022-11-14T15:09:06.464Z,98632.75
2022-11-14T15:11:34.330Z,98630.09
2022-11-14T15:14:02.465Z,98626.50
2022-11-14T15:16:33.094Z,98627.38
2022-11-14T15:19:00.776Z,98627.25
2022-11-14T15:21:29.215Z,98624.56
2022-11-14T15:24:02.432Z,98628.00
2022-11-14T15:26:31.464Z,98622.72
2022-11-14T15:29:21.684Z,98628.84
2022-11-14T15:32:04.661Z,98610.31
2022-11-14T15:34:37.325Z,98609.41
2022-11-14T15:37:18.922Z,98603.34
2022-11-14T15:39:46.729Z,98604.22
2022-11-14T15:42:27.898Z,98612.97
2022-11-14T15:44:55.428Z,98601.59
2022-11-14T15:47:30.124Z,98615.63
2022-11-14T15:50:03.109Z,98600.72
2022-11-14T15:52:37.427Z,98598.72
2022-11-14T15:55:09.434Z,98612.69
2022-11-14T15:57:36.483Z,98595.28
2022-11-14T16:00:04.085Z,98599.59
2022-11-14T16:02:34.641Z,98603.09
2022-11-14T16:05:03.956Z,98596.91
2022-11-14T16:07:30.836Z,98605.44
2022-11-14T16:09:57.490Z,98591.25
2022-11-14T16:12:23.953Z,98602.66
2022-11-14T16:14:50.590Z,98597.53
2022-11-14T16:17:17.898Z,98592.44
2022-11-14T16:19:44.583Z,98584.44
2022-11-14T16:22:17.401Z,98593.19
2022-11-14T16:24:44.165Z,98584.50
2022-11-14T16:27:13.702Z,98586.25
2022-11-14T16:29:40.220Z,98584.53
2022-11-14T16:32:10.267Z,98580.13
2022-11-14T16:34:36.740Z,98587.00
2022-11-14T16:37:03.523Z,98587.00
2022-11-14T16:39:30.459Z,98585.16
2022-11-14T16:42:02.620Z,98586.03
2022-11-14T16:44:29.245Z,98591.19
2022-11-14T16:46:55.986Z,98587.53
2022-11-14T16:49:22.764Z,98588.31
2022-11-14T16:51:51.023Z,98582.81
2022-11-14T16:54:19.515Z,98577.44
2022-11-14T16:56:46.289Z,98581.97
2022-11-14T16:59:12.983Z,98577.78
2022-11-14T17:01:39.768Z,98580.56
2022-11-14T17:04:06.504Z,98585.13
2022-11-14T17:06:33.551Z,98586.91
2022-11-14T17:09:01.034Z,98589.53
2022-11-14T17:11:28.351Z,98594.91
2022-11-14T17:13:56.577Z,98587.03
2022-11-14T17:16:23.916Z,98586.09
2022-11-14T17:18:54.128Z,98596.50
2022-11-14T17:21:21.401Z,98588.50
2022-11-14T17:23:55.457Z,98592.78
2022-11-14T17:26:21.986Z,98575.34
2022-11-14T17:28:48.554Z,98576.00
2022-11-14T17:31:16.199Z,98574.25
2022-11-14T17:33:42.688Z,98576.94
2022-11-14T17:36:10.969Z,98570.88
2022-11-14T17:38:38.269Z,98570.25
2022-11-14T17:41:07.949Z,98556.06
2022-11-14T17:43:39.182Z,98570.22
2022-11-14T17:46:12.587Z,98562.34
2022-11-14T17:48:42.266Z,98564.97
2022-11-14T17:51:12.339Z,98570.22
2022-11-14T17:53:39.346Z,98558.84
2022-11-14T17:56:07.699Z,98556.91
2022-11-14T17:58:34.820Z,98566.53
2022-11-14T18:01:01.503Z,98571.78
2022-11-14T18:03:28.321Z,98565.66
2022-11-14T18:06:08.123Z,98568.31
2022-11-14T18:08:35.434Z,98559.41
2022-11-14T18:11:03.403Z,98558.41
2022-11-14T18:13:29.940Z,98554.19
2022-11-14T18:16:02.205Z,98552.53
2022-11-14T18:18:31.478Z,98559.09
2022-11-14T18:20:59.148Z,98543.59
2022-11-14T18:23:25.639Z,98547.03
2022-11-14T18:25:52.239Z,98559.28
2022-11-14T18:28:18.689Z,98546.13
2022-11-14T18:30:55.426Z,98545.22
2022-11-14T18:33:22.971Z,98539.88
2022-11-14T18:35:57.394Z,98538.13
2022-11-14T18:38:23.888Z,98530.13
2022-11-14T18:40:55.878Z,98524.91
2022-11-14T18:43:23.943Z,98537.25
2022-11-14T18:45:50.935Z,98518.31
2022-11-14T18:48:17.453Z,98521.97
2022-11-14T18:50:44.010Z,98497.50
2022-11-14T18:53:10.504Z,98508.78
2022-11-14T18:55:40.759Z,98507.81
2022-11-14T18:58:08.076Z,98511.25
2022-11-14T19:00:35.235Z,98510.34
2022-11-14T19:03:06.022Z,98511.19
2022-11-14T19:05:36.408Z,98501.50
2022-11-14T19:08:03.302Z,98506.81
2022-11-14T19:10:29.791Z,98499.75
2022-11-14T19:12:56.275Z,98502.31
2022-11-14T19:15:26.243Z,98490.81
2022-11-14T19:17:52.760Z,98496.00
2022-11-14T19:20:19.332Z,98500.38
2022-11-14T19:22:45.872Z,98486.31
2022-11-14T19:25:12.384Z,98495.06
2022-11-14T19:27:39.914Z,98484.50
2022-11-14T19:30:07.013Z,98492.38
2022-11-14T19:32:34.380Z,98494.97
2022-11-14T19:35:00.959Z,98490.59
2022-11-14T19:37:28.324Z,98499.34
2022-11-14T19:39:55.582Z,98501.97
2022-11-14T19:42:22.142Z,98490.56
2022-11-14T19:44:48.757Z,98501.09
2022-11-14T19:47:15.205Z,98493.19
2022-11-14T19:49:42.768Z,98486.22
2022-11-14T19:52:09.280Z,98489.81
2022-11-14T19:54:36.153Z,98477.63
2022-11-14T19:57:02.616Z,98475.06
2022-11-14T19:59:29.326Z,98479.47
2022-11-14T20:01:55.938Z,98480.41
2022-11-14T20:04:22.866Z,98476.16
2022-11-14T20:06:49.436Z,98472.69
2022-11-14T20:09:16.491Z,98468.31
2022-11-14T20:11:44.941Z,98456.16
2022-11-14T20:14:12.273Z,98452.69
2022-11-14T20:16:38.978Z,98462.28
2022-11-14T20:19:05.619Z,98457.00
2022-11-14T20:21:33.929Z,98457.00
2022-11-14T20:24:00.543Z,98466.69
2022-11-14T20:26:27.699Z,98468.47
2022-11-14T20:28:54.746Z,98457.13
2022-11-14T20:31:29.409Z,98450.13
2022-11-14T20:33:56.340Z,98443.09
2022-11-14T20:36:26.107Z,98450.03
2022-11-14T20:38:53.783Z,98450.91
2022-11-14T20:41:21.132Z,98454.44
2022-11-14T20:43:48.288Z,98456.16
2022-11-14T20:46:19.861Z,98445.59
2022-11-14T20:48:46.797Z,98449.91
2022-11-14T20:51:31.406Z,98443.75
2022-11-14T20:53:57.967Z,98449.03
2022-11-14T20:56:24.805Z,98446.41
2022-11-14T20:58:54.136Z,98445.53
2022-11-14T21:01:21.577Z,98442.91
2022-11-14T21:03:52.127Z,98451.72
2022-11-14T21:06:18.638Z,98440.38
2022-11-14T21:08:45.249Z,98444.91
2022-11-14T21:11:18.262Z,98437.84
2022-11-14T21:14:00.228Z,98434.34
2022-11-14T21:16:38.821Z,98418.59
2022-11-14T21:19:07.189Z,98416.00
2022-11-14T21:21:38.152Z,98425.66
2022-11-14T21:24:05.335Z,98393.28
2022-11-14T21:26:34.177Z,98418.84
2022-11-14T21:29:04.030Z,98410.09
2022-11-14T21:31:38.913Z,98400.44
2022-11-14T21:34:17.938Z,98404.81
2022-11-14T21:36:46.348Z,98394.41
2022-11-14T21:39:17.727Z,98404.22
2022-11-14T21:41:49.240Z,98387.53
2022-11-14T21:44:17.308Z,98390.19
2022-11-14T21:46:47.053Z,98376.19
2022-11-14T21:49:13.574Z,98391.13
2022-11-14T21:51:40.140Z,98375.25
2022-11-14T21:54:06.717Z,98376.13
2022-11-14T21:56:35.914Z,98381.41
2022-11-14T21:59:15.840Z,98388.41
2022-11-14T22:02:07.145Z,98405.09
2022-11-14T22:04:34.288Z,98388.38
2022-11-14T22:07:07.204Z,98403.34
2022-11-14T22:09:34.486Z,98406.00
2022-11-14T22:12:01.115Z,98401.56
2022-11-14T22:14:30.457Z,98409.50
2022-11-14T22:16:58.011Z,98421.81
2022-11-14T22:19:27.620Z,98411.25
2022-11-14T22:21:54.406Z,98391.81
2022-11-14T22:24:20.959Z,98415.56
2022-11-14T22:26:47.436Z,98406.69
2022-11-14T22:29:13.968Z,98419.91
2022-11-14T22:31:40.437Z,98417.28
2022-11-14T22:34:07.014Z,98416.38
2022-11-14T22:36:33.748Z,98415.53
2022-11-14T22:39:00.640Z,98410.19
2022-11-14T22:41:32.737Z,98417.25
2022-11-14T22:44:00.480Z,98411.94
2022-11-14T22:46:33.201Z,98412.81
2022-11-14T22:48:59.720Z,98412.78
2022-11-14T22:51:27.346Z,98417.09
2022-11-14T22:53:56.415Z,98411.81
2022-11-14T22:56:26.761Z,98417.13
2022-11-14T22:58:53.299Z,98425.84
2022-11-14T23:01:21.073Z,98422.31
2022-11-14T23:03:48.548Z,98424.03
2022-11-14T23:06:17.328Z,98412.56
2022-11-14T23:08:44.491Z,98415.09
2022-11-14T23:11:20.214Z,98416.91
2022-11-14T23:13:52.458Z,98413.50
2022-11-14T23:16:24.733Z,98407.25
2022-11-14T23:18:54.712Z,98416.09
2022-11-14T23:21:30.621Z,98411.72
2022-11-14T23:23:59.031Z,98414.31
2022-11-14T23:26:26.544Z,98414.28
2022-11-14T23:28:56.771Z,98410.78
2022-11-14T23:31:24.759Z,98408.16
2022-11-14T23:33:53.703Z,98405.53
2022-11-14T23:36:20.615Z,98403.81
2022-11-14T23:38:47.612Z,98397.72
2022-11-14T23:41:17.390Z,98397.63
2022-11-14T23:43:44.014Z,98383.47
2022-11-14T23:46:10.475Z,98381.72
2022-11-14T23:48:37.009Z,98382.53
2022-11-14T23:51:03.860Z,98383.41
2022-11-14T23:53:30.805Z,98388.69
2022-11-14T23:55:59.805Z,98386.94
2022-11-14T23:58:28.914Z,98382.53
